Flasher, North Dakota
Current Conditions -  °F | °C
As of 11:35 PM on Sunday 23 Nov 2014 (Local Time) from KY19 Reporting Station
Light Snow Light Snow  
Wind Chill:   Ceiling: 1200
Heat Index: 16°   Visibility: 10mi
Dew Point: 12°   Wind: 17mph
Humidity: 86%   Direction: 320°NW
Pressure: 29.72"   Gusts: 29mph
Location:  46.46°N, 101.23°W
Report Text: KY19 240635Z AUTO 32015G25KT 10SM -SN OVC012 M09/M11 A2972 RMK AO2
Loading
Personal Weather Stations






























Interactive Weather Map New forecast layout! Learn more

10-Day Weather Forecast

Advertisements
Track Severe Weather on mobile